Time;durP1;ratioP1;P1;durP2;ratioP2;P2;SDS_P1;SDS_P2;PMS_P1;PMS_P2;Temp;Humidity;BMP_temperature;BMP_pressure;BME280_temperature;BME280_humidity;BME280_pressure;Samples;Min_cycle;Max_cycle;Signal;HPM_P1;HPM_P2
2022/10/06 00:00:30;;;;;;;;;;;;;;;;;;5077668;28;20015;-79
2022/10/06 00:02:56;;;;;;;;;;;;;;;;;;5067440;28;19963;-80
2022/10/06 00:05:23;;;;;;;;;;;;;;;;;;5064290;28;19932;-78
2022/10/06 00:07:50;;;;;;;;;;;;;;;;;;5068317;28;19929;-78
2022/10/06 00:10:16;;;;;;;;;;;;;;;;;;5066842;28;19951;-77
2022/10/06 00:12:43;;;;;;;;;;;;;;;;;;5066936;28;19925;-78
2022/10/06 00:15:11;;;;;;;;;;;;;;;;;;5061895;28;20007;-79
2022/10/06 00:17:39;;;;;;;;;;;;;;;;;;5057514;28;20015;-78
2022/10/06 00:20:06;;;;;;;;;;;;;;;;;;5059086;28;19932;-78
2022/10/06 00:22:34;;;;;;;;;;;;;;;;;;5056140;28;19924;-78
2022/10/06 00:25:00;;;;;;;;;;;;;;;;;;5053889;28;20410;-78
2022/10/06 00:27:33;;;;;;;;;;;;;;;;;;5056796;28;19961;-76
2022/10/06 00:29:59;;;;;;;;;;;;;;;;;;5058397;28;19960;-79
2022/10/06 00:32:26;;;;;;;;;;;;;;;;;;5056673;28;19986;-77
2022/10/06 00:34:54;;;;;;;;;;;;;;;;;;5054114;28;20016;-77
2022/10/06 00:37:20;;;;;;;;;;;;;;;;;;5055571;28;19960;-79
2022/10/06 00:39:47;;;;;;;;;;;;;;;;;;5056969;28;19936;-78
2022/10/06 00:42:23;;;;;;;;;;;;;;;;;;5056355;28;20006;-78
2022/10/06 00:44:50;;;;;;;;;;;;;;;;;;5054779;28;19925;-77
2022/10/06 00:47:17;;;;;;;;;;;;;;;;;;5058254;28;20375;-78
2022/10/06 00:49:44;;;;;;;;;;;;;;;;;;5053196;28;20331;-77
2022/10/06 00:52:14;;;;;;;;;;;;;;;;;;5052874;28;20483;-79
2022/10/06 00:54:40;;;;;;;;;;;;;;;;;;5056180;28;19967;-80
2022/10/06 00:57:07;;;;;;;;;;;;;;;;;;5055890;28;20015;-80
2022/10/06 00:59:34;;;;;;;;;;;;;;;;;;5055350;28;19931;-78
2022/10/06 01:02:02;;;;;;;;;;;;;;;;;;5057681;28;20015;-78
2022/10/06 01:04:31;;;;;;;;;;;;;;;;;;5075757;28;19924;-79
2022/10/06 01:06:58;;;;;;;;;;;;;;;;;;5074315;28;19970;-78
2022/10/06 01:09:27;;;;;;;;;;;;;;;;;;5073077;28;20012;-79
2022/10/06 01:11:55;;;;;;;;;;;;;;;;;;5075198;28;19966;-79
2022/10/06 01:14:22;;;;;;;;;;;;;;;;;;5076573;28;20034;-76
2022/10/06 01:16:51;;;;;;;;;;;;;;;;;;5074321;28;20034;-78
2022/10/06 01:19:26;;;;;;;;;;;;;;;;;;5073858;28;20379;-78
2022/10/06 01:21:54;;;;;;;;;;;;;;;;;;5074250;28;19925;-78
2022/10/06 01:24:22;;;;;;;;;;;;;;;;;;5075797;28;19931;-79
2022/10/06 01:26:51;;;;;;;;;;;;;;;;;;5074779;28;19932;-79
2022/10/06 01:29:17;;;;;;;;;;;;;;;;;;5075686;28;19988;-78
2022/10/06 01:31:44;;;;;;;;;;;;;;;;;;5075248;28;19924;-79
2022/10/06 01:34:10;;;;;;;;;;;;;;;;;;5075260;28;20418;-78
2022/10/06 01:36:39;;;;;;;;;;;;;;;;;;5073756;28;19955;-78
2022/10/06 01:39:06;;;;;;;;;;;;;;;;;;5072701;28;19931;-77
2022/10/06 01:41:34;;;;;;;;;;;;;;;;;;5071095;28;19924;-78
2022/10/06 01:44:00;;;;;;;;;;;;;;;;;;5073154;28;19925;-78
2022/10/06 01:46:28;;;;;;;;;;;;;;;;;;5074488;28;20012;-78
2022/10/06 01:48:54;;;;;;;;;;;;;;;;;;5073491;28;19968;-78
2022/10/06 01:51:21;;;;;;;;;;;;;;;;;;5072389;28;20028;-79
2022/10/06 01:53:47;;;;;;;;;;;;;;;;;;5072919;28;19950;-78
2022/10/06 01:56:14;;;;;;;;;;;;;;;;;;5073059;28;19985;-78
2022/10/06 01:58:42;;;;;;;;;;;;;;;;;;5072176;28;20381;-79
2022/10/06 02:01:09;;;;;;;;;;;;;;;;;;5072989;28;20015;-79
2022/10/06 02:03:35;;;;;;;;;;;;;;;;;;5059480;28;20302;-79
2022/10/06 02:06:02;;;;;;;;;;;;;;;;;;5055683;28;19947;-79
2022/10/06 02:08:28;;;;;;;;;;;;;;;;;;5054153;28;20007;-79
2022/10/06 02:10:55;;;;;;;;;;;;;;;;;;5052489;28;19925;-79
2022/10/06 02:13:23;;;;;;;;;;;;;;;;;;5053521;28;20011;-77
2022/10/06 02:15:54;;;;;;;;;;;;;;;;;;5051950;28;19960;-78
2022/10/06 02:18:21;;;;;;;;;;;;;;;;;;5053471;28;20015;-79
2022/10/06 02:20:47;;;;;;;;;;;;;;;;;;5053501;28;19929;-78
2022/10/06 02:23:14;;;;;;;;;;;;;;;;;;5053859;28;19968;-79
2022/10/06 02:25:40;;;;;;;;;;;;;;;;;;5053874;28;19948;-76
2022/10/06 02:28:06;;;;;;;;;;;;;;;;;;5053172;28;19932;-79
2022/10/06 02:30:33;;;;;;;;;;;;;;;;;;5052909;28;19935;-78
2022/10/06 02:33:01;;;;;;;;;;;;;;;;;;5053128;28;19978;-78
2022/10/06 02:35:27;;;;;;;;;;;;;;;;;;5053317;28;20001;-78
2022/10/06 02:37:53;;;;;;;;;;;;;;;;;;5053134;28;19976;-79
2022/10/06 02:40:20;;;;;;;;;;;;;;;;;;5052839;28;19924;-78
2022/10/06 02:42:46;;;;;;;;;;;;;;;;;;5052859;28;20355;-78
2022/10/06 02:45:13;;;;;;;;;;;;;;;;;;5053087;28;20027;-79
2022/10/06 02:47:39;;;;;;;;;;;;;;;;;;5052831;28;19978;-79
2022/10/06 02:50:08;;;;;;;;;;;;;;;;;;5054027;28;20020;-77
2022/10/06 02:52:35;;;;;;;;;;;;;;;;;;5051230;28;20016;-78
2022/10/06 02:55:03;;;;;;;;;;;;;;;;;;5050540;28;19925;-77
2022/10/06 02:57:29;;;;;;;;;;;;;;;;;;5050733;28;20015;-77
2022/10/06 02:59:55;;;;;;;;;;;;;;;;;;5050381;28;19955;-77
2022/10/06 03:02:22;;;;;;;;;;;;;;;;;;5050073;28;20007;-77
2022/10/06 03:04:49;;;;;;;;;;;;;;;;;;5049875;28;19979;-78
2022/10/06 03:07:17;;;;;;;;;;;;;;;;;;5050133;28;19925;-77
2022/10/06 03:09:44;;;;;;;;;;;;;;;;;;5050062;28;19929;-78
2022/10/06 03:12:11;;;;;;;;;;;;;;;;;;5050079;28;20007;-77
2022/10/06 03:14:37;;;;;;;;;;;;;;;;;;5049977;28;19929;-78
2022/10/06 03:17:04;;;;;;;;;;;;;;;;;;5052810;28;19976;-78
2022/10/06 03:19:30;;;;;;;;;;;;;;;;;;5053850;28;20011;-78
2022/10/06 03:21:57;;;;;;;;;;;;;;;;;;5053790;28;20031;-77
2022/10/06 03:24:24;;;;;;;;;;;;;;;;;;5053996;28;19924;-78
2022/10/06 03:26:51;;;;;;;;;;;;;;;;;;5053973;28;19925;-78
2022/10/06 03:29:17;;;;;;;;;;;;;;;;;;5053570;28;20015;-78
2022/10/06 03:31:44;;;;;;;;;;;;;;;;;;5053074;28;19947;-78
2022/10/06 03:34:12;;;;;;;;;;;;;;;;;;5053323;28;20020;-78
2022/10/06 03:36:39;;;;;;;;;;;;;;;;;;5053440;28;19932;-78
2022/10/06 03:39:05;;;;;;;;;;;;;;;;;;5053247;28;19925;-77
2022/10/06 03:41:34;;;;;;;;;;;;;;;;;;5053475;28;20058;-78
2022/10/06 03:44:00;;;;;;;;;;;;;;;;;;5053209;28;20011;-77
2022/10/06 03:46:27;;;;;;;;;;;;;;;;;;5053113;28;20498;-77
2022/10/06 03:48:55;;;;;;;;;;;;;;;;;;5052794;28;19926;-78
2022/10/06 03:51:23;;;;;;;;;;;;;;;;;;5052651;28;20439;-78
2022/10/06 03:53:50;;;;;;;;;;;;;;;;;;5052930;28;20410;-77
2022/10/06 03:56:18;;;;;;;;;;;;;;;;;;5053246;28;19952;-79
2022/10/06 03:58:47;;;;;;;;;;;;;;;;;;5052864;28;19928;-78
2022/10/06 04:01:14;;;;;;;;;;;;;;;;;;5052936;28;19929;-77
2022/10/06 04:03:40;;;;;;;;;;;;;;;;;;5053133;28;20012;-77
2022/10/06 04:06:10;;;;;;;;;;;;;;;;;;5052802;28;20403;-77
2022/10/06 04:08:37;;;;;;;;;;;;;;;;;;5053082;28;19929;-78
2022/10/06 04:11:04;;;;;;;;;;;;;;;;;;5053154;28;20004;-77
2022/10/06 04:13:31;;;;;;;;;;;;;;;;;;5053159;28;19925;-78
2022/10/06 04:15:59;;;;;;;;;;;;;;;;;;5052918;28;20447;-77
2022/10/06 04:18:25;;;;;;;;;;;;;;;;;;5052736;28;20413;-77
2022/10/06 04:20:58;;;;;;;;;;;;;;;;;;5054459;28;19925;-79
2022/10/06 04:23:25;;;;;;;;;;;;;;;;;;5055589;28;20295;-79
2022/10/06 04:25:57;;;;;;;;;;;;;;;;;;5055817;28;19931;-79
2022/10/06 04:28:24;;;;;;;;;;;;;;;;;;5054673;28;19925;-79
2022/10/06 04:30:55;;;;;;;;;;;;;;;;;;5055292;28;20015;-79
2022/10/06 04:33:22;;;;;;;;;;;;;;;;;;5056157;28;19932;-79
2022/10/06 04:35:56;;;;;;;;;;;;;;;;;;5055796;28;19925;-79
2022/10/06 04:38:22;;;;;;;;;;;;;;;;;;5055175;28;19960;-79
2022/10/06 04:40:48;;;;;;;;;;;;;;;;;;5055914;28;20007;-79
2022/10/06 04:43:15;;;;;;;;;;;;;;;;;;5064042;28;20030;-77
2022/10/06 04:45:42;;;;;;;;;;;;;;;;;;5074540;28;19924;-77
2022/10/06 04:48:08;;;;;;;;;;;;;;;;;;5073328;28;20003;-76
2022/10/06 04:50:36;;;;;;;;;;;;;;;;;;5073575;28;19979;-77
2022/10/06 04:53:02;;;;;;;;;;;;;;;;;;5074434;28;19931;-78
2022/10/06 04:55:29;;;;;;;;;;;;;;;;;;5073569;28;19977;-78
2022/10/06 04:57:55;;;;;;;;;;;;;;;;;;5073695;28;19925;-77
2022/10/06 05:00:25;;;;;;;;;;;;;;;;;;5073810;28;20016;-76
2022/10/06 05:02:53;;;;;;;;;;;;;;;;;;5064101;28;20012;-77
2022/10/06 05:05:19;;;;;;;;;;;;;;;;;;5054161;28;19956;-77
2022/10/06 05:07:47;;;;;;;;;;;;;;;;;;5054296;28;19928;-77
2022/10/06 05:10:14;;;;;;;;;;;;;;;;;;5054127;28;20285;-77
2022/10/06 05:12:40;;;;;;;;;;;;;;;;;;5051984;28;20015;-77
2022/10/06 05:15:08;;;;;;;;;;;;;;;;;;5053150;28;19974;-78
2022/10/06 05:17:34;;;;;;;;;;;;;;;;;;5054506;28;19982;-78
2022/10/06 05:20:01;;;;;;;;;;;;;;;;;;5053738;28;19924;-77
2022/10/06 05:22:27;;;;;;;;;;;;;;;;;;5053080;28;20027;-76
2022/10/06 05:24:55;;;;;;;;;;;;;;;;;;5052311;28;20007;-76
2022/10/06 05:27:22;;;;;;;;;;;;;;;;;;5052428;28;19925;-77
2022/10/06 05:29:48;;;;;;;;;;;;;;;;;;5051981;28;19960;-77
2022/10/06 05:32:14;;;;;;;;;;;;;;;;;;5051843;28;19947;-76
2022/10/06 05:34:41;;;;;;;;;;;;;;;;;;5053585;28;19979;-76
2022/10/06 05:37:07;;;;;;;;;;;;;;;;;;5063572;28;19924;-76
2022/10/06 05:39:34;;;;;;;;;;;;;;;;;;5074234;28;20654;-76
2022/10/06 05:42:01;;;;;;;;;;;;;;;;;;5072230;28;20341;-76
2022/10/06 05:44:28;;;;;;;;;;;;;;;;;;5071759;28;20023;-77
2022/10/06 05:46:54;;;;;;;;;;;;;;;;;;5071105;28;19975;-78
2022/10/06 05:49:21;;;;;;;;;;;;;;;;;;5071179;28;19971;-77
2022/10/06 05:51:47;;;;;;;;;;;;;;;;;;5070992;28;19935;-77
2022/10/06 05:54:14;;;;;;;;;;;;;;;;;;5071115;28;20367;-77
2022/10/06 05:56:41;;;;;;;;;;;;;;;;;;5072556;28;19964;-77
2022/10/06 05:59:09;;;;;;;;;;;;;;;;;;5070816;28;19959;-77
2022/10/06 06:01:36;;;;;;;;;;;;;;;;;;5070930;28;20570;-77
2022/10/06 06:04:05;;;;;;;;;;;;;;;;;;5070494;28;19982;-77
2022/10/06 06:06:32;;;;;;;;;;;;;;;;;;5071179;28;19951;-77
2022/10/06 06:08:59;;;;;;;;;;;;;;;;;;5070492;28;19967;-77
2022/10/06 06:11:26;;;;;;;;;;;;;;;;;;5070409;28;20025;-77
2022/10/06 06:13:53;;;;;;;;;;;;;;;;;;5070406;28;19924;-77
2022/10/06 06:16:20;;;;;;;;;;;;;;;;;;5070671;28;19946;-77
2022/10/06 06:18:46;;;;;;;;;;;;;;;;;;5070605;28;19925;-78
2022/10/06 06:21:13;;;;;;;;;;;;;;;;;;5070594;28;19924;-76
2022/10/06 06:23:40;;;;;;;;;;;;;;;;;;5070875;28;19931;-77
2022/10/06 06:26:07;;;;;;;;;;;;;;;;;;5071916;28;19924;-77
2022/10/06 06:28:35;;;;;;;;;;;;;;;;;;5072577;28;19971;-77
2022/10/06 06:31:03;;;;;;;;;;;;;;;;;;5070332;28;19925;-76
2022/10/06 06:33:31;;;;;;;;;;;;;;;;;;5070464;28;19925;-77
2022/10/06 06:36:00;;;;;;;;;;;;;;;;;;5069971;28;20417;-77
2022/10/06 06:38:26;;;;;;;;;;;;;;;;;;5070119;28;20386;-76
2022/10/06 06:40:53;;;;;;;;;;;;;;;;;;5070287;28;19924;-77
2022/10/06 06:43:19;;;;;;;;;;;;;;;;;;5070053;28;20017;-77
2022/10/06 06:45:45;;;;;;;;;;;;;;;;;;5070357;28;20015;-76
2022/10/06 06:48:14;;;;;;;;;;;;;;;;;;5070243;28;20036;-77
2022/10/06 06:50:42;;;;;;;;;;;;;;;;;;5069635;28;20035;-77
2022/10/06 06:53:08;;;;;;;;;;;;;;;;;;5070100;28;20403;-77
2022/10/06 06:55:35;;;;;;;;;;;;;;;;;;5070073;28;20367;-77
2022/10/06 06:58:01;;;;;;;;;;;;;;;;;;5070023;28;19982;-77
2022/10/06 07:00:28;;;;;;;;;;;;;;;;;;5070037;28;19924;-77
2022/10/06 07:02:59;;;;;;;;;;;;;;;;;;5070836;28;20023;-77
2022/10/06 07:05:26;;;;;;;;;;;;;;;;;;5071820;28;20007;-78
2022/10/06 07:07:54;;;;;;;;;;;;;;;;;;5075828;28;19993;-77
2022/10/06 07:10:20;;;;;;;;;;;;;;;;;;5075973;28;19974;-77
2022/10/06 07:12:47;;;;;;;;;;;;;;;;;;5074493;28;19931;-76
2022/10/06 07:26:11;;;;;;;;;;;;;;;;;;5073834;28;20342;-77
2022/10/06 07:28:37;;;;;;;;;;;;;;;;;;5073331;28;20018;-78
2022/10/06 07:31:04;;;;;;;;;;;;;;;;;;5072121;28;19947;-77
2022/10/06 07:33:31;;;;;;;;;;;;;;;;;;5073765;28;20571;-77
2022/10/06 07:35:58;;;;;;;;;;;;;;;;;;5071994;28;19936;-77
2022/10/06 07:38:24;;;;;;;;;;;;;;;;;;5071431;28;19994;-77
2022/10/06 07:40:55;;;;;;;;;;;;;;;;;;5070703;28;20398;-77
2022/10/06 07:43:22;;;;;;;;;;;;;;;;;;5071077;28;19924;-77
2022/10/06 07:45:48;;;;;;;;;;;;;;;;;;5072043;28;20438;-77
2022/10/06 07:48:16;;;;;;;;;;;;;;;;;;5073539;28;20526;-75
2022/10/06 07:50:44;;;;;;;;;;;;;;;;;;5070732;28;19924;-77
2022/10/06 07:53:11;;;;;;;;;;;;;;;;;;5070488;28;19930;-77
2022/10/06 07:55:38;;;;;;;;;;;;;;;;;;5070603;28;20019;-77
2022/10/06 07:58:09;;;;;;;;;;;;;;;;;;5070693;28;19924;-76
2022/10/06 08:00:36;;;;;;;;;;;;;;;;;;5070165;28;19932;-77
2022/10/06 08:03:02;;;;;;;;;;;;;;;;;;5074742;28;20379;-77
2022/10/06 08:05:29;;;;;;;;;;;;;;;;;;5077570;28;19985;-78
2022/10/06 08:07:57;;;;;;;;;;;;;;;;;;5078194;28;19924;-76
2022/10/06 08:10:23;;;;;;;;;;;;;;;;;;5076497;28;20030;-78
2022/10/06 08:12:50;;;;;;;;;;;;;;;;;;5076419;28;19924;-77
2022/10/06 08:15:18;;;;;;;;;;;;;;;;;;5075071;28;19930;-77
2022/10/06 08:17:44;;;;;;;;;;;;;;;;;;5074091;28;19974;-76
2022/10/06 08:20:12;;;;;;;;;;;;;;;;;;5074285;28;20015;-77
2022/10/06 08:22:39;;;;;;;;;;;;;;;;;;5075719;28;20016;-76
2022/10/06 08:25:11;;;;;;;;;;;;;;;;;;5098777;28;19944;-75
2022/10/06 08:27:39;;;;;;;;;;;;;;;;;;5098411;28;19928;-77
2022/10/06 08:30:06;;;;;;;;;;;;;;;;;;5098248;28;19935;-75
2022/10/06 08:32:34;;;;;;;;;;;;;;;;;;5098126;28;19935;-76
2022/10/06 08:35:03;;;;;;;;;;;;;;;;;;5096332;28;19955;-78
2022/10/06 08:37:29;;;;;;;;;;;;;;;;;;5086387;28;19939;-78
2022/10/06 08:39:56;;;;;;;;;;;;;;;;;;5079689;28;20371;-78
2022/10/06 08:42:26;;;;;;;;;;;;;;;;;;5080736;28;19951;-78
2022/10/06 08:44:55;;;;;;;;;;;;;;;;;;5082389;28;19972;-77
2022/10/06 08:47:23;;;;;;;;;;;;;;;;;;5085812;28;19935;-77
2022/10/06 08:49:53;;;;;;;;;;;;;;;;;;5080785;28;19933;-78
2022/10/06 08:52:33;;;;;;;;;;;;;;;;;;5092225;28;19925;-79
2022/10/06 08:55:03;;;;;;;;;;;;;;;;;;5089701;28;20011;-78
2022/10/06 08:57:33;;;;;;;;;;;;;;;;;;5089025;28;19931;-77
2022/10/06 09:00:02;;;;;;;;;;;;;;;;;;5081019;28;20019;-78
2022/10/06 09:02:30;;;;;;;;;;;;;;;;;;5081111;28;20031;-78
2022/10/06 09:04:59;;;;;;;;;;;;;;;;;;5083786;28;19925;-78
2022/10/06 09:07:31;;;;;;;;;;;;;;;;;;5076504;28;20051;-78
2022/10/06 09:10:05;;;;;;;;;;;;;;;;;;5076987;28;19928;-78
2022/10/06 09:12:34;;;;;;;;;;;;;;;;;;5079305;28;19967;-79
2022/10/06 09:15:08;;;;;;;;;;;;;;;;;;5077164;28;19947;-78
2022/10/06 09:17:37;;;;;;;;;;;;;;;;;;5078402;28;19933;-78
2022/10/06 09:20:07;;;;;;;;;;;;;;;;;;5078700;28;19955;-78
2022/10/06 09:22:34;;;;;;;;;;;;;;;;;;5078707;28;19924;-78
2022/10/06 09:25:08;;;;;;;;;;;;;;;;;;5083977;28;19929;-77
2022/10/06 09:27:37;;;;;;;;;;;;;;;;;;5085544;28;19924;-79
2022/10/06 09:30:05;;;;;;;;;;;;;;;;;;5077837;28;19979;-77
2022/10/06 09:32:33;;;;;;;;;;;;;;;;;;5075589;28;20212;-78
2022/10/06 09:35:01;;;;;;;;;;;;;;;;;;5076353;28;19971;-78
2022/10/06 09:37:29;;;;;;;;;;;;;;;;;;5075824;28;19960;-77
2022/10/06 09:39:55;;;;;;;;;;;;;;;;;;5076158;28;19970;-78
2022/10/06 09:42:23;;;;;;;;;;;;;;;;;;5073735;28;19924;-77
2022/10/06 09:44:55;;;;;;;;;;;;;;;;;;5072924;28;20446;-77
2022/10/06 09:47:37;;;;;;;;;;;;;;;;;;5080648;28;20094;-77
2022/10/06 09:50:13;;;;;;;;;;;;;;;;;;5090295;28;19963;-77
2022/10/06 09:52:41;;;;;;;;;;;;;;;;;;5088345;28;19929;-76
2022/10/06 09:55:14;;;;;;;;;;;;;;;;;;5073137;28;19964;-77
2022/10/06 09:57:48;;;;;;;;;;;;;;;;;;5077582;28;20003;-77
2022/10/06 10:00:28;;;;;;;;;;;;;;;;;;5077061;28;19925;-79
2022/10/06 10:03:01;;;;;;;;;;;;;;;;;;5066082;28;19932;-77
2022/10/06 10:05:28;;;;;;;;;;;;;;;;;;5058876;28;19982;-77
2022/10/06 10:08:05;;;;;;;;;;;;;;;;;;5075286;28;19925;-77
2022/10/06 10:10:33;;;;;;;;;;;;;;;;;;5062404;28;19932;-77
2022/10/06 10:12:59;;;;;;;;;;;;;;;;;;5060324;28;19928;-76
2022/10/06 10:15:28;;;;;;;;;;;;;;;;;;5065290;28;20020;-78
2022/10/06 10:17:55;;;;;;;;;;;;;;;;;;5070453;28;19988;-77
2022/10/06 10:20:26;;;;;;;;;;;;;;;;;;5070393;28;20019;-76
2022/10/06 10:22:53;;;;;;;;;;;;;;;;;;5070111;28;19925;-78
2022/10/06 10:25:29;;;;;;;;;;;;;;;;;;5063328;28;20029;-77
2022/10/06 10:27:59;;;;;;;;;;;;;;;;;;5064054;28;19972;-78
2022/10/06 10:30:27;;;;;;;;;;;;;;;;;;5069230;28;19925;-77
2022/10/06 10:32:59;;;;;;;;;;;;;;;;;;5060116;28;19928;-79
2022/10/06 10:35:27;;;;;;;;;;;;;;;;;;5058522;28;19947;-77
2022/10/06 10:37:56;;;;;;;;;;;;;;;;;;5061370;28;20032;-78
2022/10/06 10:40:36;;;;;;;;;;;;;;;;;;5066783;28;19951;-77
2022/10/06 10:43:06;;;;;;;;;;;;;;;;;;5054628;28;20335;-77
2022/10/06 10:45:33;;;;;;;;;;;;;;;;;;5052862;28;19925;-78
2022/10/06 10:48:01;;;;;;;;;;;;;;;;;;5053598;28;20398;-78
2022/10/06 10:50:29;;;;;;;;;;;;;;;;;;5056984;28;19947;-77
2022/10/06 10:52:58;;;;;;;;;;;;;;;;;;5053950;28;19931;-78
2022/10/06 10:55:27;;;;;;;;;;;;;;;;;;5053115;28;20019;-77
2022/10/06 10:57:57;;;;;;;;;;;;;;;;;;5053336;28;19929;-77
2022/10/06 11:00:26;;;;;;;;;;;;;;;;;;5055612;28;19968;-78
2022/10/06 11:02:55;;;;;;;;;;;;;;;;;;5065764;28;19978;-77
2022/10/06 11:05:29;;;;;;;;;;;;;;;;;;5074330;28;19939;-77
2022/10/06 11:08:00;;;;;;;;;;;;;;;;;;5073817;28;19931;-78
2022/10/06 11:10:28;;;;;;;;;;;;;;;;;;5103272;22;19932;-75
2022/10/06 11:13:03;;;;;;;;;;;;;;;;;;5069910;28;19947;-76
2022/10/06 11:15:40;;;;;;;;;;;;;;;;;;5070000;28;19992;-75
2022/10/06 11:18:14;;;;;;;;;;;;;;;;;;5069782;28;20011;-74
2022/10/06 11:20:44;;;;;;;;;;;;;;;;;;5069195;28;19924;-75
2022/10/06 11:23:29;;;;;;;;;;;;;;;;;;5069865;28;20015;-75
2022/10/06 11:26:00;;;;;;;;;;;;;;;;;;5070289;28;19931;-75
2022/10/06 11:28:31;;;;;;;;;;;;;;;;;;5070218;28;19928;-75
2022/10/06 11:31:00;;;;;;;;;;;;;;;;;;5069975;28;19924;-74
2022/10/06 11:33:29;;;;;;;;;;;;;;;;;;5070182;28;19928;-75
2022/10/06 11:35:55;;;;;;;;;;;;;;;;;;5069947;28;20295;-75
2022/10/06 11:38:24;;;;;;;;;;;;;;;;;;5072919;28;19964;-75
2022/10/06 11:41:00;;;;;;;;;;;;;;;;;;5072778;28;20023;-75
2022/10/06 11:43:32;;;;;;;;;;;;;;;;;;5073680;28;19982;-75
2022/10/06 11:46:03;;;;;;;;;;;;;;;;;;5073586;28;19944;-75
2022/10/06 11:48:30;;;;;;;;;;;;;;;;;;5073574;28;19994;-76
2022/10/06 11:51:17;;;;;;;;;;;;;;;;;;5073124;28;20023;-75
2022/10/06 11:53:44;;;;;;;;;;;;;;;;;;5073203;28;19925;-76
2022/10/06 11:56:23;;;;;;;;;;;;;;;;;;5073574;28;20309;-75
2022/10/06 11:59:08;;;;;;;;;;;;;;;;;;5072865;28;19925;-75
2022/10/06 12:01:50;;;;;;;;;;;;;;;;;;5073264;28;20373;-75
2022/10/06 12:04:17;;;;;;;;;;;;;;;;;;5052684;28;19928;-75
2022/10/06 12:07:09;;;;;;;;;;;;;;;;;;5052805;28;19933;-75
2022/10/06 12:09:48;;;;;;;;;;;;;;;;;;5053461;28;19931;-75
2022/10/06 12:12:33;;;;;;;;;;;;;;;;;;5053657;28;19964;-75
2022/10/06 12:15:09;;;;;;;;;;;;;;;;;;5053737;28;19947;-74
2022/10/06 12:17:38;;;;;;;;;;;;;;;;;;5055763;28;19931;-75
2022/10/06 12:20:12;;;;;;;;;;;;;;;;;;5055796;28;19964;-74
2022/10/06 12:22:43;;;;;;;;;;;;;;;;;;5052431;28;20449;-75
2022/10/06 12:25:13;;;;;;;;;;;;;;;;;;5052322;28;19925;-76
2022/10/06 12:27:48;;;;;;;;;;;;;;;;;;5052631;28;19925;-76
2022/10/06 12:30:19;;;;;;;;;;;;;;;;;;5052446;28;19925;-75
2022/10/06 12:32:49;;;;;;;;;;;;;;;;;;5052931;28;19928;-75
2022/10/06 12:35:23;;;;;;;;;;;;;;;;;;5052946;28;19937;-74
2022/10/06 12:37:52;;;;;;;;;;;;;;;;;;5052760;28;19936;-76
2022/10/06 12:40:37;;;;;;;;;;;;;;;;;;5052426;28;19965;-75
2022/10/06 12:43:17;;;;;;;;;;;;;;;;;;5052846;28;20349;-74
2022/10/06 12:45:47;;;;;;;;;;;;;;;;;;5052556;28;19925;-75
2022/10/06 12:48:15;;;;;;;;;;;;;;;;;;5051907;28;20019;-75
2022/10/06 12:50:44;;;;;;;;;;;;;;;;;;5053013;28;20506;-74
2022/10/06 12:53:13;;;;;;;;;;;;;;;;;;5052698;28;19972;-75
2022/10/06 12:55:42;;;;;;;;;;;;;;;;;;5052494;28;19924;-74
2022/10/06 12:58:16;;;;;;;;;;;;;;;;;;5070062;28;20487;-75
2022/10/06 13:00:43;;;;;;;;;;;;;;;;;;5071778;28;19931;-75
2022/10/06 13:03:15;;;;;;;;;;;;;;;;;;5085108;28;19959;-76
2022/10/06 13:05:48;;;;;;;;;;;;;;;;;;5092358;28;20122;-75
2022/10/06 13:08:21;;;;;;;;;;;;;;;;;;5092195;28;19924;-75
2022/10/06 13:10:47;;;;;;;;;;;;;;;;;;5091676;28;20014;-76
2022/10/06 13:13:22;;;;;;;;;;;;;;;;;;5092008;28;20402;-75
2022/10/06 13:15:49;;;;;;;;;;;;;;;;;;5092261;28;19935;-74
2022/10/06 13:18:18;;;;;;;;;;;;;;;;;;5092164;28;19924;-76
2022/10/06 13:20:47;;;;;;;;;;;;;;;;;;5091477;28;19924;-76
2022/10/06 13:23:20;;;;;;;;;;;;;;;;;;5092057;28;20004;-76
2022/10/06 13:25:47;;;;;;;;;;;;;;;;;;5091937;28;19971;-76
2022/10/06 13:28:21;;;;;;;;;;;;;;;;;;5091787;28;19982;-77
2022/10/06 13:30:51;;;;;;;;;;;;;;;;;;5091469;28;19924;-75
2022/10/06 13:33:20;;;;;;;;;;;;;;;;;;5087000;28;19930;-74
2022/10/06 13:35:49;;;;;;;;;;;;;;;;;;5070465;28;20403;-75
2022/10/06 13:38:15;;;;;;;;;;;;;;;;;;5071512;28;19929;-75
2022/10/06 13:40:42;;;;;;;;;;;;;;;;;;5071095;28;19925;-76
2022/10/06 13:43:13;;;;;;;;;;;;;;;;;;5071516;28;19924;-76
2022/10/06 13:45:41;;;;;;;;;;;;;;;;;;5071146;28;19931;-77
2022/10/06 13:48:08;;;;;;;;;;;;;;;;;;5071671;28;19935;-77
2022/10/06 13:50:40;;;;;;;;;;;;;;;;;;5071314;28;19932;-76
2022/10/06 13:53:20;;;;;;;;;;;;;;;;;;5073346;28;19925;-76
2022/10/06 13:55:49;;;;;;;;;;;;;;;;;;5073169;28;19981;-76
2022/10/06 13:58:17;;;;;;;;;;;;;;;;;;5075332;28;20011;-76
2022/10/06 14:00:48;;;;;;;;;;;;;;;;;;5077963;28;19924;-76
2022/10/06 14:03:20;;;;;;;;;;;;;;;;;;5079682;28;19924;-76
2022/10/06 14:05:48;;;;;;;;;;;;;;;;;;5080598;28;19924;-76
2022/10/06 14:08:18;;;;;;;;;;;;;;;;;;5088011;28;19979;-77
2022/10/06 14:10:47;;;;;;;;;;;;;;;;;;5091470;28;19924;-77
2022/10/06 14:13:15;;;;;;;;;;;;;;;;;;5091381;28;19979;-77
2022/10/06 14:15:46;;;;;;;;;;;;;;;;;;5090874;28;19924;-77
2022/10/06 14:18:17;;;;;;;;;;;;;;;;;;5091200;28;19925;-76
2022/10/06 14:20:45;;;;;;;;;;;;;;;;;;5090817;28;19946;-76
2022/10/06 14:23:30;;;;;;;;;;;;;;;;;;5078830;28;19924;-75
2022/10/06 14:25:58;;;;;;;;;;;;;;;;;;5081056;28;19932;-76
2022/10/06 14:28:25;;;;;;;;;;;;;;;;;;5080200;28;20371;-76
2022/10/06 14:30:52;;;;;;;;;;;;;;;;;;5074314;28;20003;-75
2022/10/06 14:33:19;;;;;;;;;;;;;;;;;;5090830;28;19928;-76
2022/10/06 14:35:45;;;;;;;;;;;;;;;;;;5090552;28;19998;-75
2022/10/06 14:38:12;;;;;;;;;;;;;;;;;;5090574;28;19930;-76
2022/10/06 14:40:40;;;;;;;;;;;;;;;;;;5075453;28;20438;-76
2022/10/06 14:43:08;;;;;;;;;;;;;;;;;;5069466;28;20471;-76
2022/10/06 14:45:36;;;;;;;;;;;;;;;;;;5075392;28;19930;-76
2022/10/06 14:48:03;;;;;;;;;;;;;;;;;;5077172;28;19947;-77
2022/10/06 14:50:30;;;;;;;;;;;;;;;;;;5079651;28;19928;-76
2022/10/06 14:52:57;;;;;;;;;;;;;;;;;;5072966;28;19947;-76
2022/10/06 14:55:28;;;;;;;;;;;;;;;;;;5070316;28;19935;-75
2022/10/06 14:57:55;;;;;;;;;;;;;;;;;;5073257;28;20398;-76
2022/10/06 15:00:23;;;;;;;;;;;;;;;;;;5079020;28;20001;-74
2022/10/06 15:02:50;;;;;;;;;;;;;;;;;;5077224;28;19973;-76
2022/10/06 15:05:16;;;;;;;;;;;;;;;;;;5084587;28;20025;-75
2022/10/06 15:10:26;;;;;;;;;;;;;;;;;;5069532;28;19998;-75
2022/10/06 15:12:54;;;;;;;;;;;;;;;;;;5072536;28;19955;-76
2022/10/06 15:15:20;;;;;;;;;;;;;;;;;;5074274;28;19952;-75
2022/10/06 15:17:48;;;;;;;;;;;;;;;;;;5074130;28;19924;-75
2022/10/06 15:20:16;;;;;;;;;;;;;;;;;;5084698;28;19931;-76
2022/10/06 15:22:42;;;;;;;;;;;;;;;;;;5087158;28;19925;-75
2022/10/06 15:30:49;;;;;;;;;;;;;;;;;;5072915;28;19935;-76
2022/10/06 15:33:17;;;;;;;;;;;;;;;;;;5074384;28;20011;-76
2022/10/06 15:35:47;;;;;;;;;;;;;;;;;;5074311;28;19979;-76
2022/10/06 15:38:13;;;;;;;;;;;;;;;;;;5073956;28;19928;-76
2022/10/06 15:40:40;;;;;;;;;;;;;;;;;;5078659;28;19956;-75
2022/10/06 15:43:06;;;;;;;;;;;;;;;;;;5084606;28;19925;-75
2022/10/06 15:45:33;;;;;;;;;;;;;;;;;;5084148;28;19958;-74
2022/10/06 15:47:59;;;;;;;;;;;;;;;;;;5081655;28;20029;-75
2022/10/06 15:50:27;;;;;;;;;;;;;;;;;;5084058;28;20011;-75
2022/10/06 15:52:54;;;;;;;;;;;;;;;;;;5086039;28;20022;-76
2022/10/06 15:55:20;;;;;;;;;;;;;;;;;;5078597;28;19924;-74
2022/10/06 15:57:47;;;;;;;;;;;;;;;;;;5073194;28;19928;-75
2022/10/06 16:00:14;;;;;;;;;;;;;;;;;;5072836;28;20023;-75
2022/10/06 16:02:40;;;;;;;;;;;;;;;;;;5081931;28;19930;-76
2022/10/06 16:07:58;;;;;;;;;;;;;;;;;;5077076;28;19924;-76
2022/10/06 16:10:24;;;;;;;;;;;;;;;;;;5092920;28;20401;-76
2022/10/06 16:12:51;;;;;;;;;;;;;;;;;;5093349;28;19971;-75
2022/10/06 16:15:17;;;;;;;;;;;;;;;;;;5093262;28;20426;-75
2022/10/06 16:17:44;;;;;;;;;;;;;;;;;;5093053;28;19968;-75
2022/10/06 16:20:10;;;;;;;;;;;;;;;;;;5092884;28;20003;-75
2022/10/06 16:22:37;;;;;;;;;;;;;;;;;;5092969;28;20406;-75
2022/10/06 16:25:05;;;;;;;;;;;;;;;;;;5093289;28;20369;-76
2022/10/06 16:27:31;;;;;;;;;;;;;;;;;;5092796;28;20426;-76
2022/10/06 16:29:58;;;;;;;;;;;;;;;;;;5092806;28;20010;-76
2022/10/06 16:32:24;;;;;;;;;;;;;;;;;;5092962;28;20410;-76
2022/10/06 16:34:51;;;;;;;;;;;;;;;;;;5093017;28;20016;-75
2022/10/06 16:37:17;;;;;;;;;;;;;;;;;;5092924;28;19924;-75
2022/10/06 16:39:44;;;;;;;;;;;;;;;;;;5092613;28;19924;-75
2022/10/06 16:42:11;;;;;;;;;;;;;;;;;;5092747;28;19924;-75
2022/10/06 16:44:38;;;;;;;;;;;;;;;;;;5092910;28;19969;-76
2022/10/06 16:47:04;;;;;;;;;;;;;;;;;;5092692;28;19924;-75
2022/10/06 16:49:31;;;;;;;;;;;;;;;;;;5092624;28;19924;-75
2022/10/06 16:51:57;;;;;;;;;;;;;;;;;;5092374;28;19928;-75
2022/10/06 16:54:24;;;;;;;;;;;;;;;;;;5092867;28;20007;-77
2022/10/06 16:56:53;;;;;;;;;;;;;;;;;;5092402;28;19928;-76
2022/10/06 16:59:22;;;;;;;;;;;;;;;;;;5092350;28;19928;-76
2022/10/06 17:01:49;;;;;;;;;;;;;;;;;;5090506;28;19928;-76
2022/10/06 17:04:16;;;;;;;;;;;;;;;;;;5072125;28;19978;-76
2022/10/06 17:06:44;;;;;;;;;;;;;;;;;;5072014;28;19925;-76
2022/10/06 17:09:12;;;;;;;;;;;;;;;;;;5072033;28;19989;-76
2022/10/06 17:11:39;;;;;;;;;;;;;;;;;;5071824;22;19932;-77
2022/10/06 17:14:06;;;;;;;;;;;;;;;;;;5032252;28;19948;-78
2022/10/06 17:16:35;;;;;;;;;;;;;;;;;;5035893;28;19963;-78